createdAt,value
2024-01-20T00:01:39.978Z,41.67
2024-01-20T00:16:42.869Z,41.48
2024-01-20T00:31:45.363Z,41.79
2024-01-20T00:46:47.217Z,41.67
2024-01-20T01:01:49.904Z,41.69
2024-01-20T01:16:51.868Z,41.49
2024-01-20T01:31:53.606Z,42.05
2024-01-20T01:46:56.247Z,41.70
2024-01-20T02:01:58.815Z,41.78
2024-01-20T02:17:01.346Z,42.10
2024-01-20T02:32:04.046Z,41.57
2024-01-20T02:47:07.390Z,41.65
2024-01-20T03:02:10.276Z,41.78
2024-01-20T03:17:12.849Z,42.10
2024-01-20T03:32:14.660Z,42.04
2024-01-20T03:47:16.349Z,42.28
2024-01-20T04:02:18.135Z,41.89
2024-01-20T04:17:20.723Z,42.05
2024-01-20T04:32:22.412Z,41.75
2024-01-20T04:47:24.124Z,42.15
2024-01-20T05:02:26.685Z,42.05
2024-01-20T05:17:29.371Z,42.22
2024-01-20T05:32:31.286Z,42.42
2024-01-20T05:47:33.051Z,42.05
2024-01-20T06:02:35.586Z,42.18
2024-01-20T06:17:37.399Z,41.81
2024-01-20T06:32:40.042Z,42.39
2024-01-20T06:47:42.767Z,42.13
2024-01-20T07:02:45.771Z,42.33
2024-01-20T07:17:48.552Z,42.66
2024-01-20T07:32:51.960Z,42.67
2024-01-20T07:47:55.550Z,42.21
2024-01-20T08:02:58.218Z,40.62
2024-01-20T08:18:00.912Z,39.57
2024-01-20T08:33:05.273Z,40.56
2024-01-20T08:48:08.889Z,40.45
2024-01-20T09:03:11.586Z,40.58
2024-01-20T09:18:13.635Z,40.75
2024-01-20T09:33:15.520Z,41.36
2024-01-20T09:48:17.334Z,41.63
2024-01-20T10:03:20.389Z,41.64
2024-01-20T10:18:23.093Z,41.82
2024-01-20T10:33:25.789Z,41.66
2024-01-20T10:48:30.336Z,41.39
2024-01-20T11:03:33.461Z,41.05
2024-01-20T11:18:40.546Z,41.19
2024-01-20T11:33:47.349Z,41.65
2024-01-20T11:48:50.241Z,41.80
2024-01-20T12:03:52.933Z,42.50
2024-01-20T12:18:56.425Z,43.34
2024-01-20T12:33:59.232Z,43.03
2024-01-20T12:49:01.848Z,43.02
2024-01-20T13:04:04.511Z,42.52
2024-01-20T13:19:07.382Z,42.65
2024-01-20T13:34:10.422Z,42.34
2024-01-20T13:49:13.603Z,42.58
2024-01-20T14:04:16.460Z,42.98
2024-01-20T14:19:19.167Z,42.66
2024-01-20T14:34:22.664Z,41.41
2024-01-20T14:49:24.533Z,40.96
2024-01-20T15:04:26.551Z,40.39
2024-01-20T15:19:29.332Z,40.44
2024-01-20T15:34:32.784Z,40.51
2024-01-20T15:49:35.526Z,40.60
2024-01-20T16:04:38.052Z,40.88
2024-01-20T16:19:40.662Z,41.29
2024-01-20T16:34:43.304Z,41.84
2024-01-20T16:49:46.702Z,41.79
2024-01-20T17:04:49.293Z,41.71
2024-01-20T17:19:51.856Z,41.76
2024-01-20T17:34:54.466Z,41.80
2024-01-20T17:49:57.714Z,41.82
2024-01-20T18:05:01.171Z,42.16
2024-01-20T18:20:03.831Z,42.82
2024-01-20T18:35:07.013Z,42.36
2024-01-20T18:50:09.459Z,42.56
2024-01-20T19:05:12.263Z,43.02
2024-01-20T19:20:14.860Z,42.66
2024-01-20T19:35:16.505Z,42.35
2024-01-20T19:50:18.335Z,42.13
2024-01-20T20:05:20.888Z,42.32
2024-01-20T20:20:22.862Z,42.33
2024-01-20T20:35:24.679Z,42.14
2024-01-20T20:50:27.320Z,42.59
2024-01-20T21:05:29.833Z,42.25
2024-01-20T21:20:31.560Z,42.22
2024-01-20T21:35:34.309Z,42.77
2024-01-20T21:50:36.068Z,42.86
2024-01-20T22:05:38.218Z,42.67
2024-01-20T22:20:40.779Z,42.71
2024-01-20T22:35:43.337Z,42.68
2024-01-20T22:50:46.141Z,43.11
2024-01-20T23:05:48.693Z,42.64
2024-01-20T23:20:51.464Z,42.95
2024-01-20T23:35:53.968Z,42.43
2024-01-20T23:50:55.779Z,42.89
